Latest Weather Observations for Davis*

IDT60801

Issued at 9:32 pm EST Sunday 25 June 2017 (issued every 30 minutes, with the page automatically refreshed every 10 minutes)

About weather observations | Map of weather stations | Latest weather observations for ANT | Other Formats
Station Details ID: 300000 Name: DAVIS Lat: -68.57 Lon: 77.97 Height: 18.0 m
Data from the previous 72 hours. | See also: Recent months at Davis*
Date/Time
EST
Temp
°C
App
Temp
°C
Dew
Point
°C
Rel
Hum
%
Delta-T
°C
Wind Press
QNH
hPa
Press
MSL
hPa
Rain since
9am
mm
Dir  Spd
km/h
Gust
km/h
Spd
kts
Gust
kts
25/09:30pm -13.4 -22.5 -15.9 81 - NE 30 46 16 25 985.3 - -
25/09:27pm -13.4 -22.1 -15.9 81 - NE 28 46 15 25 985.2 - -
25/09:00pm -13.1 -21.8 -15.8 80 - NE 28 35 15 19 984.4 - -
25/08:30pm -13.1 -21.8 -15.5 82 - NE 28 39 15 21 984.9 - -
25/08:00pm -12.9 -21.2 -15.3 82 - NE 26 33 14 18 984.8 - -
25/07:30pm -12.9 -22.4 -15.3 82 - NE 32 41 17 22 984.6 - -
25/07:00pm -13.0 -22.6 -15.1 84 - NNE 33 43 18 23 984.3 984.6 -
25/06:30pm -12.5 -21.9 -14.5 85 - NE 32 44 17 24 984.0 - -
25/06:00pm -12.6 -21.6 -14.4 86 - NE 30 41 16 22 983.8 - -
25/05:30pm -12.9 -22.0 -14.7 86 - NNE 30 39 16 21 983.4 - -
25/05:00pm -12.4 -21.8 -14.4 85 - NE 32 41 17 22 983.1 - -
25/04:30pm -12.2 -22.2 -14.2 85 - NE 35 41 19 22 982.8 - -
25/04:00pm -12.0 -22.0 -14.0 85 - NE 35 48 19 26 982.7 983.0 -
25/03:30pm -12.0 -21.6 -14.1 84 - NE 33 43 18 23 982.7 - -
25/03:00pm -12.3 -23.0 -14.0 87 - NE 39 48 21 26 982.5 - -
25/02:30pm -12.1 -22.8 -14.0 86 - NE 39 54 21 29 982.5 - -
25/02:00pm -12.1 -22.1 -14.0 86 - NE 35 48 19 26 982.5 - -
25/01:30pm -12.1 -22.1 -14.2 84 - NE 35 44 19 24 982.2 - -
25/01:00pm -12.0 -21.4 -14.4 82 - NE 32 41 17 22 982.1 982.4 -
25/12:30pm -11.9 -21.9 -14.3 82 - NE 35 43 19 23 982.0 - -
25/12:00pm -11.7 -22.8 -14.1 82 - NE 41 54 22 29 981.5 - -
25/11:30am -11.7 -22.4 -14.3 81 - NE 39 54 21 29 981.6 - -
25/11:00am -11.4 -22.5 -14.0 81 - NE 41 57 22 31 981.4 - -
25/10:30am -11.4 -22.1 -14.1 80 - NE 39 54 21 29 981.2 - -
25/10:00am -11.5 -22.6 -14.1 81 - NE 41 54 22 29 981.2 981.5 -
25/09:30am -11.4 -21.4 -14.0 81 - NE 35 43 19 23 981.5 - -
25/09:00am -11.5 -20.1 -14.2 80 - NE 28 35 15 19 981.1 - -
25/08:30am -11.2 -20.2 -13.9 80 - NE 30 39 16 21 981.9 - -
25/08:00am -11.1 -22.6 -13.9 80 - NE 43 56 23 30 981.5 - -
25/07:30am -11.1 -21.8 -13.9 80 - NE 39 48 21 26 981.5 - -
25/07:00am -11.0 -20.4 -14.1 78 - NE 32 43 17 23 981.7 982.0 -
25/06:30am -11.0 -18.9 -14.2 77 - NE 24 35 13 19 982.0 - -
25/06:00am -11.0 -19.6 -14.1 78 - NE 28 46 15 25 982.1 - -
25/05:30am -10.6 -17.7 -13.7 78 - NE 20 35 11 19 982.0 - -
25/05:00am -11.1 -16.9 -13.7 81 - NE 13 20 7 11 982.1 - -
25/04:30am -11.7 -16.1 -13.4 87 - N 6 7 3 4 982.1 - -
25/04:00am -11.6 -15.6 -13.2 88 - NNE 4 13 2 7 982.1 982.4 -
25/03:30am -11.5 -16.8 -12.9 89 - N 11 13 6 7 982.0 - -
25/03:00am -11.4 -17.5 -12.8 89 - N 15 19 8 10 982.0 - -
25/02:30am -11.5 -16.8 -12.9 89 - NNE 11 13 6 7 982.0 - -
25/02:00am -11.2 -16.9 -12.6 89 - NE 13 20 7 11 982.0 - -
25/01:30am -11.4 -16.0 -12.7 90 - NNE 7 9 4 5 982.1 - -
25/01:00am -11.1 -16.8 -12.7 88 - NNE 13 15 7 8 982.1 982.4 -
25/12:30am -11.0 -16.3 -12.4 89 - NNE 11 15 6 8 982.0 - -
25/12:00am -10.9 -16.6 -12.3 89 - NNE 13 17 7 9 981.9 - -
 
Date/Time
EST
Temp
°C
App
Temp
°C
Dew
Point
°C
Rel
Hum
%
Delta-T
°C
Wind Press
QNH
hPa
Press
MSL
hPa
Rain since
9am
mm
Dir  Spd
km/h
Gust
km/h
Spd
kts
Gust
kts
24/11:30pm -11.0 -15.9 -12.3 90 - N 9 11 5 6 981.9 - -
24/11:00pm -10.9 -15.3 -12.3 89 - NW 6 7 3 4 981.9 - -
24/10:30pm -10.7 -16.3 -11.7 92 - W 13 15 7 8 981.8 - -
24/10:00pm -11.2 -16.1 -12.4 91 - W 9 11 5 6 982.0 982.3 -
24/09:30pm -10.8 -15.3 -12.0 91 - W 7 9 4 5 982.0 - -
24/09:00pm -10.6 -15.1 -11.8 91 - SSW 7 9 4 5 981.5 - -
24/08:30pm -10.7 -15.6 -12.0 90 - ENE 9 15 5 8 981.7 - -
24/08:00pm -10.7 -15.6 -12.0 90 - ENE 9 13 5 7 981.7 - -
24/07:30pm -11.1 -16.0 -12.5 89 - NNE 9 15 5 8 981.6 - -
24/07:00pm -11.0 -16.3 -12.4 89 - NE 11 13 6 7 981.5 981.8 -
24/06:30pm -10.8 -16.1 -12.2 89 - NE 11 15 6 8 981.3 - -
24/06:00pm -10.6 -16.7 -12.2 88 - N 15 20 8 11 981.2 - -
24/05:30pm -10.6 -14.9 -12.2 88 - N 6 11 3 6 981.0 - -
24/05:00pm -10.6 -15.1 -11.8 91 - W 7 9 4 5 981.0 - -
24/04:30pm -10.4 -15.3 -11.6 91 - W 9 11 5 6 980.8 - -
24/04:00pm -10.5 -15.0 -11.7 91 - WSW 7 11 4 6 981.0 981.3 -
24/03:30pm -10.6 -15.9 -11.8 91 - SW 11 13 6 7 981.2 - -
24/03:00pm -10.2 -15.5 -11.9 87 - S 11 15 6 8 981.1 - -
24/02:30pm -9.6 -15.7 -12.5 79 - ENE 15 19 8 10 981.1 - -
24/02:00pm -10.0 -15.3 -12.3 83 - NE 11 19 6 10 981.1 - -
24/01:30pm -10.0 -14.4 -12.5 82 - N 6 13 3 7 981.2 - -
24/01:00pm -9.7 -13.3 -12.6 79 - NW 2 7 1 4 981.4 981.7 -
24/12:30pm -10.2 -15.2 -13.0 80 - ESE 9 13 5 7 981.5 - -
24/12:00pm -10.4 -15.7 -12.7 83 - SSE 11 17 6 9 981.6 - -
24/11:30am -10.6 -17.0 -12.1 89 - SE 17 20 9 11 981.9 - -
24/11:00am -11.0 -16.7 -12.4 89 - SE 13 19 7 10 982.1 - -
24/10:30am -11.2 -16.2 -12.8 88 - SE 9 11 5 6 982.4 - -
24/10:00am -11.8 -15.9 -13.8 85 - SSE 4 7 2 4 982.7 983.0 -
24/09:30am -11.5 -16.9 -13.9 82 - SSE 11 13 6 7 982.8 - -
24/09:00am -10.9 -15.9 -13.7 80 - S 9 11 5 6 982.3 - -
24/08:30am -11.7 -17.5 -14.3 81 - SSE 13 17 7 9 983.1 - -
24/08:00am -12.0 -17.4 -14.6 81 - SSE 11 13 6 7 983.0 - -
24/07:30am -12.8 -17.9 -14.9 84 - SSW 9 11 5 6 983.4 - -
24/07:00am -11.9 -17.0 -14.6 80 - SSE 9 15 5 8 983.6 983.9 -
24/06:30am -12.2 -17.6 -14.3 84 - SSE 11 13 6 7 983.9 - -
24/06:00am -11.9 -17.3 -13.6 87 - SSE 11 13 6 7 984.1 - -
24/05:30am -12.0 -17.0 -13.6 88 - S 9 13 5 7 984.4 - -
24/05:00am -11.9 -16.5 -13.9 85 - S 7 9 4 5 984.7 - -
24/04:30am -11.4 -16.4 -14.0 81 - SSE 9 15 5 8 984.9 - -
24/04:00am -12.2 -17.6 -14.8 81 - S 11 13 6 7 984.9 985.2 -
24/03:30am -11.6 -17.4 -15.1 75 - NE 13 19 7 10 984.9 - -
24/03:00am -11.3 -16.4 -14.7 76 - ENE 9 17 5 9 985.5 - -
24/02:30am -11.6 -21.6 -14.2 81 - NNE 35 46 19 25 985.1 - -
24/02:00am -11.9 -19.4 -14.9 78 - NE 22 30 12 16 985.5 - -
24/01:30am -12.1 -20.8 -15.1 78 - NE 28 37 15 20 985.5 - -
24/01:00am -12.4 -22.0 -14.8 82 - NE 33 41 18 22 985.6 985.9 -
24/12:30am -12.2 -23.0 -14.9 80 - NE 39 57 21 31 985.4 - -
24/12:00am -12.2 -23.0 -15.1 79 - NE 39 48 21 26 985.8 - -
 
Date/Time
EST
Temp
°C
App
Temp
°C
Dew
Point
°C
Rel
Hum
%
Delta-T
°C
Wind Press
QNH
hPa
Press
MSL
hPa
Rain since
9am
mm
Dir  Spd
km/h
Gust
km/h
Spd
kts
Gust
kts
23/11:30pm -12.4 -23.6 -15.0 81 - NE 41 50 22 27 985.7 - -
23/11:00pm -12.4 -23.5 -14.8 82 - NE 41 57 22 31 985.8 - -
23/10:59pm -12.4 -23.2 -14.8 82 - NE 39 57 21 31 985.8 - -
23/10:30pm -12.8 -24.3 -15.2 82 - NE 43 56 23 30 985.7 - -
23/10:00pm -12.8 -25.3 -15.2 82 - NE 48 61 26 33 985.8 986.1 -
23/09:37pm -12.6 -25.9 -15.2 81 - NE 52 74 28 40 985.7 - -
23/09:30pm -13.1 -26.0 -15.4 83 - NE 50 65 27 35 985.7 - -
23/09:27pm -13.0 -25.5 -15.3 83 - NE 48 65 26 35 985.7 - -
23/09:00pm -13.3 -23.3 -15.6 83 - NE 35 43 19 23 985.7 - -
23/08:30pm -13.3 -22.8 -15.4 84 - NE 32 43 17 23 986.7 - -
23/08:00pm -13.0 -23.4 -15.4 82 - NE 37 48 20 26 986.5 - -
23/07:30pm -13.4 -24.6 -15.5 84 - NE 41 50 22 27 986.9 - -
23/07:00pm -13.4 -23.5 -15.8 82 - NE 35 46 19 25 987.3 987.7 -
23/06:30pm -13.6 -23.7 -15.7 84 - NE 35 43 19 23 987.2 - -
23/06:00pm -14.2 -23.7 -16.2 85 - NE 32 39 17 21 987.2 - -
23/05:30pm -14.5 -26.3 -16.2 87 - NNE 44 52 24 28 987.2 - -
23/05:00pm -14.5 -25.3 -16.2 87 - NNE 39 46 21 25 987.8 - -
23/04:30pm -14.5 -25.3 -16.2 87 - NNE 39 50 21 27 988.2 - -
23/04:00pm -14.7 -24.4 -16.4 87 - NE 33 41 18 22 988.0 988.4 -
23/03:30pm -14.5 -22.5 -16.3 86 - NE 24 32 13 17 988.1 - -
23/03:00pm -14.9 -22.0 -16.6 87 - NE 19 24 10 13 988.3 - -
23/02:30pm -15.5 -20.1 -17.0 88 - ENE 6 11 3 6 988.1 - -
23/02:00pm -16.4 -21.0 -18.0 87 - NE 6 7 3 4 988.1 - -
23/01:30pm -17.0 -22.6 -18.6 87 - NE 11 15 6 8 988.1 - -
23/01:00pm -16.0 -21.6 -17.7 87 - SE 11 13 6 7 988.0 988.4 -
23/12:30pm -15.8 -20.4 -17.3 88 - S 6 7 3 4 988.1 - -
23/12:00pm -16.2 -20.8 -17.8 87 - SSW 6 7 3 4 988.2 - -
23/11:30am -16.7 -21.9 -18.3 87 - N 9 11 5 6 988.4 - -
23/11:00am -17.1 -21.8 -18.7 87 - N 6 9 3 5 987.9 - -
23/10:30am -16.1 -19.6 -17.8 87 - CALM 0 0 0 0 987.8 - -
23/10:00am -15.9 -19.4 -17.4 88 - CALM 0 7 0 4 987.4 987.8 -
23/09:30am -15.5 -19.0 -17.0 88 - CALM 0 0 0 0 987.4 - -
23/09:00am -15.6 -20.2 -17.1 88 - NNE 6 7 3 4 987.0 - -
23/08:30am -14.9 -18.3 -16.4 88 - CALM 0 6 0 3 986.9 - -
23/08:00am -15.0 -18.8 -16.5 88 - SSE 2 9 1 5 986.7 - -
23/07:30am -14.8 -19.4 -16.3 88 - S 6 11 3 6 986.4 - -
23/07:00am -14.8 -20.7 -16.3 88 - SSE 13 17 7 9 985.9 986.2 -
23/06:30am -14.6 -20.9 -16.1 88 - S 15 19 8 10 985.6 - -
23/06:00am -14.9 -20.4 -16.4 88 - SW 11 13 6 7 985.4 - -
23/05:30am -15.0 -22.1 -16.5 88 - SSW 19 20 10 11 984.8 - -
23/05:00am -15.1 -22.2 -16.6 88 - SW 19 22 10 12 984.9 - -
23/04:30am -14.6 -21.2 -16.0 89 - SW 17 22 9 12 984.8 - -
23/04:00am -14.7 -21.9 -16.1 89 - WSW 20 24 11 13 984.7 985.0 -
23/03:30am -15.4 -20.2 -16.9 88 - WSW 7 11 4 6 984.7 - -
23/03:00am -15.3 -21.6 -16.8 88 - SSW 15 20 8 11 984.4 - -
23/02:30am -15.8 -21.0 -17.3 88 - SSW 9 13 5 7 984.3 - -
23/02:00am -15.7 -20.9 -17.2 88 - SW 9 11 5 6 984.1 - -
23/01:30am -15.4 -21.0 -16.9 88 - SSW 11 17 6 9 984.2 - -
23/01:00am -15.5 -22.2 -17.0 88 - S 17 28 9 15 984.1 984.4 -

Other Formats:

Comma delimited format used in spreadsheet applications
http://www.bom.gov.au/fwo/IDT60803/IDT60803.89571.axf

JavaScript Object Notation format (JSON) in row-major order
http://www.bom.gov.au/fwo/IDT60803/IDT60803.89571.json